createdAt,value
2022-09-23T00:01:03.407Z,101462.88
2022-09-23T00:03:31.500Z,101467.94
2022-09-23T00:06:03.400Z,101468.63
2022-09-23T00:08:30.531Z,101476.06
2022-09-23T00:10:57.295Z,101475.53
2022-09-23T00:13:24.782Z,101471.97
2022-09-23T00:15:52.196Z,101472.16
2022-09-23T00:18:20.695Z,101471.63
2022-09-23T00:20:47.254Z,101472.16
2022-09-23T00:23:13.817Z,101472.50
2022-09-23T00:25:40.223Z,101460.25
2022-09-23T00:28:06.591Z,101457.69
2022-09-23T00:30:33.023Z,101461.78
2022-09-23T00:33:00.251Z,101447.38
2022-09-23T00:35:26.730Z,101453.47
2022-09-23T00:37:53.095Z,101449.41
2022-09-23T00:40:19.587Z,101443.97
2022-09-23T00:42:51.956Z,101452.59
2022-09-23T00:45:19.340Z,101447.16
2022-09-23T00:47:59.017Z,101449.03
2022-09-23T00:50:36.236Z,101452.06
2022-09-23T00:53:15.864Z,101447.88
2022-09-23T00:55:52.935Z,101455.28
2022-09-23T00:58:23.569Z,101441.22
2022-09-23T01:00:50.124Z,101436.09
2022-09-23T01:03:16.484Z,101434.72
2022-09-23T01:05:42.962Z,101434.25
2022-09-23T01:08:12.860Z,101426.41
2022-09-23T01:11:20.605Z,101426.38
2022-09-23T01:14:26.317Z,101427.03
2022-09-23T01:16:58.589Z,101425.75
2022-09-23T01:19:27.954Z,101426.75
2022-09-23T01:22:01.956Z,101426.38
2022-09-23T01:24:47.123Z,101427.94
2022-09-23T01:28:01.347Z,101428.88
2022-09-23T01:30:55.374Z,101423.09
2022-09-23T01:33:30.440Z,101426.13
2022-09-23T01:36:13.871Z,101423.22
2022-09-23T01:38:40.171Z,101423.94
2022-09-23T01:41:16.152Z,101418.97
2022-09-23T01:43:58.235Z,101410.13
2022-09-23T01:46:30.449Z,101416.44
2022-09-23T01:49:12.633Z,101414.50
2022-09-23T01:51:43.997Z,101410.63
2022-09-23T01:54:46.235Z,101406.88
2022-09-23T01:57:16.071Z,101407.34
2022-09-23T01:59:50.947Z,101410.84
2022-09-23T02:02:28.342Z,101407.81
2022-09-23T02:05:00.493Z,101414.00
2022-09-23T02:07:57.293Z,101412.25
2022-09-23T02:10:42.060Z,101414.72
2022-09-23T02:13:16.948Z,101410.72
2022-09-23T02:15:51.525Z,101409.13
2022-09-23T02:18:24.665Z,101410.00
2022-09-23T02:20:54.684Z,101408.69
2022-09-23T02:23:25.448Z,101400.19
2022-09-23T02:26:02.962Z,101390.66
2022-09-23T02:28:51.694Z,101382.81
2022-09-23T02:31:33.132Z,101386.19
2022-09-23T02:34:17.408Z,101382.06
2022-09-23T02:37:07.108Z,101380.22
2022-09-23T02:39:48.872Z,101374.31
2022-09-23T02:42:22.003Z,101375.47
2022-09-23T02:44:48.662Z,101372.69
2022-09-23T02:47:19.126Z,101366.72
2022-09-23T02:49:45.644Z,101365.69
2022-09-23T02:52:13.665Z,101362.28
2022-09-23T02:54:40.666Z,101361.56
2022-09-23T02:57:08.249Z,101366.84
2022-09-23T02:59:35.852Z,101352.72
2022-09-23T03:02:24.208Z,101354.25
2022-09-23T03:05:00.097Z,101356.22
2022-09-23T03:08:00.332Z,101345.44
2022-09-23T03:10:35.135Z,101348.63
2022-09-23T03:13:40.809Z,101344.97
2022-09-23T03:16:40.734Z,101341.66
2022-09-23T03:19:47.772Z,101349.38
2022-09-23T03:22:22.542Z,101345.66
2022-09-23T03:24:54.005Z,101344.28
2022-09-23T03:27:25.839Z,101335.84
2022-09-23T03:29:54.054Z,101340.91
2022-09-23T03:32:24.744Z,101335.09
2022-09-23T03:34:53.843Z,101335.31
2022-09-23T03:37:31.352Z,101334.19
2022-09-23T03:40:12.217Z,101337.88
2022-09-23T03:42:39.759Z,101341.59
2022-09-23T03:45:13.004Z,101338.63
2022-09-23T03:47:39.539Z,101335.94
2022-09-23T03:50:06.509Z,101335.00
2022-09-23T03:52:32.956Z,101335.91
2022-09-23T03:54:59.445Z,101336.84
2022-09-23T03:57:25.819Z,101328.00
2022-09-23T03:59:52.550Z,101325.69
2022-09-23T04:02:19.825Z,101328.47
2022-09-23T04:04:46.798Z,101319.13
2022-09-23T04:07:13.674Z,101325.53
2022-09-23T04:09:40.457Z,101318.03
2022-09-23T04:12:07.631Z,101319.19
2022-09-23T04:14:34.039Z,101320.28
2022-09-23T04:17:00.422Z,101316.25
2022-09-23T04:19:26.790Z,101322.59
2022-09-23T04:21:53.206Z,101312.00
2022-09-23T04:24:19.752Z,101313.38
2022-09-23T04:26:46.164Z,101310.75
2022-09-23T04:29:12.551Z,101324.84
2022-09-23T04:31:39.054Z,101327.22
2022-09-23T04:34:05.540Z,101327.06
2022-09-23T04:36:32.003Z,101315.94
2022-09-23T04:38:58.501Z,101324.53
2022-09-23T04:41:24.919Z,101322.84
2022-09-23T04:43:51.303Z,101313.78
2022-09-23T04:46:17.968Z,101314.44
2022-09-23T04:48:44.790Z,101319.44
2022-09-23T04:51:12.925Z,101315.72
2022-09-23T04:53:41.526Z,101314.31
2022-09-23T04:56:11.636Z,101314.34
2022-09-23T04:58:39.195Z,101308.38
2022-09-23T05:01:17.208Z,101311.31
2022-09-23T05:03:44.708Z,101310.47
2022-09-23T05:06:16.326Z,101311.31
2022-09-23T05:08:49.221Z,101314.03
2022-09-23T05:11:16.452Z,101305.22
2022-09-23T05:13:42.793Z,101310.53
2022-09-23T05:16:12.471Z,101306.63
2022-09-23T05:18:42.759Z,101313.00
2022-09-23T05:21:14.520Z,101318.22
2022-09-23T05:23:41.949Z,101308.19
2022-09-23T05:26:11.646Z,101313.16
2022-09-23T05:28:39.417Z,101305.69
2022-09-23T05:31:19.939Z,101306.22
2022-09-23T05:33:49.754Z,101309.34
2022-09-23T05:36:17.871Z,101307.75
2022-09-23T05:38:45.106Z,101311.22
2022-09-23T05:41:13.428Z,101319.88
2022-09-23T05:43:40.287Z,101315.47
2022-09-23T05:46:18.225Z,101317.97
2022-09-23T05:48:46.215Z,101318.56
2022-09-23T05:51:32.316Z,101311.22
2022-09-23T05:53:59.880Z,101312.47
2022-09-23T05:56:27.938Z,101317.66
2022-09-23T05:58:56.652Z,101315.19
2022-09-23T06:01:27.992Z,101317.28
2022-09-23T06:03:56.303Z,101319.34
2022-09-23T06:06:38.041Z,101313.16
2022-09-23T06:09:05.824Z,101318.66
2022-09-23T06:11:34.700Z,101314.56
2022-09-23T06:14:02.997Z,101314.31
2022-09-23T06:16:32.199Z,101323.16
2022-09-23T06:19:05.139Z,101307.72
2022-09-23T06:21:34.010Z,101312.63
2022-09-23T06:24:00.858Z,101317.88
2022-09-23T06:26:28.378Z,101308.38
2022-09-23T06:28:54.746Z,101309.63
2022-09-23T06:31:21.156Z,101308.22
2022-09-23T06:33:50.252Z,101316.41
2022-09-23T06:36:33.906Z,101312.72
2022-09-23T06:39:03.704Z,101311.78
2022-09-23T06:41:30.085Z,101309.09
2022-09-23T06:43:56.418Z,101306.53
2022-09-23T06:46:22.812Z,101302.75
2022-09-23T06:48:51.075Z,101308.53
2022-09-23T06:51:21.652Z,101312.41
2022-09-23T06:53:49.088Z,101312.94
2022-09-23T06:56:17.311Z,101313.72
2022-09-23T06:58:43.842Z,101308.06
2022-09-23T07:01:13.175Z,101313.56
2022-09-23T07:03:39.645Z,101314.53
2022-09-23T07:06:08.022Z,101310.88
2022-09-23T07:08:35.128Z,101306.91
2022-09-23T07:11:04.584Z,101306.22
2022-09-23T07:13:33.287Z,101308.56
2022-09-23T07:16:02.064Z,101311.28
2022-09-23T07:18:36.739Z,101313.00
2022-09-23T07:21:15.895Z,101307.47
2022-09-23T07:23:43.460Z,101307.72
2022-09-23T07:26:10.350Z,101312.56
2022-09-23T07:28:37.343Z,101304.81
2022-09-23T07:31:06.798Z,101308.63
2022-09-23T07:33:35.708Z,101306.75
2022-09-23T07:36:10.897Z,101306.28
2022-09-23T07:38:41.543Z,101300.44
2022-09-23T07:41:13.590Z,101305.06
2022-09-23T07:43:40.802Z,101301.56
2022-09-23T07:46:11.060Z,101303.63
2022-09-23T07:48:38.601Z,101315.03
2022-09-23T07:51:21.071Z,101313.66
2022-09-23T07:53:49.088Z,101312.91
2022-09-23T07:56:17.235Z,101318.78
2022-09-23T07:58:43.647Z,101316.50
2022-09-23T08:01:12.027Z,101322.19
2022-09-23T08:03:39.356Z,101328.31
2022-09-23T08:06:08.273Z,101320.66
2022-09-23T08:08:35.607Z,101306.31
2022-09-23T08:11:04.007Z,101314.47
2022-09-23T08:13:30.892Z,101313.59
2022-09-23T08:15:58.162Z,101306.97
2022-09-23T08:18:25.076Z,101308.34
2022-09-23T08:20:52.147Z,101312.00
2022-09-23T08:23:20.989Z,101306.69
2022-09-23T08:25:48.053Z,101307.84
2022-09-23T08:28:19.109Z,101306.53
2022-09-23T08:30:48.731Z,101310.97
2022-09-23T08:33:19.676Z,101311.50
2022-09-23T08:35:49.253Z,101306.28
2022-09-23T08:38:15.695Z,101303.56
2022-09-23T08:40:44.999Z,101305.06
2022-09-23T08:43:32.769Z,101305.38
2022-09-23T08:46:05.201Z,101309.53
2022-09-23T08:48:43.160Z,101301.03
2022-09-23T08:51:23.655Z,101307.44
2022-09-23T08:53:50.295Z,101318.59
2022-09-23T08:56:19.872Z,101316.81
2022-09-23T08:58:53.347Z,101315.78
2022-09-23T09:01:38.014Z,101312.38
2022-09-23T09:04:14.496Z,101318.06
2022-09-23T09:06:53.048Z,101312.19
2022-09-23T09:09:26.997Z,101306.41
2022-09-23T09:12:02.144Z,101304.63
2022-09-23T09:14:43.713Z,101300.31
2022-09-23T09:17:16.510Z,101300.03
2022-09-23T09:19:48.437Z,101291.97
2022-09-23T09:22:21.423Z,101286.78
2022-09-23T09:24:49.744Z,101291.56
2022-09-23T09:27:16.319Z,101286.31
2022-09-23T09:29:49.780Z,101294.09
2022-09-23T09:32:46.196Z,101287.38
2022-09-23T09:35:35.076Z,101282.44
2022-09-23T09:38:01.869Z,101279.41
2022-09-23T09:40:28.361Z,101275.88
2022-09-23T09:42:54.871Z,101276.03
2022-09-23T09:45:30.063Z,101280.72
2022-09-23T09:48:12.418Z,101281.50
2022-09-23T09:50:52.950Z,101274.53
2022-09-23T09:53:39.526Z,101276.47
2022-09-23T09:56:08.714Z,101266.78
2022-09-23T09:58:37.321Z,101269.41
2022-09-23T10:01:05.511Z,101266.13
2022-09-23T10:03:41.368Z,101259.72
2022-09-23T10:06:20.755Z,101257.56
2022-09-23T10:09:08.773Z,101257.06
2022-09-23T10:11:35.567Z,101258.22
2022-09-23T10:14:13.959Z,101261.91
2022-09-23T10:16:41.971Z,101252.41
2022-09-23T10:19:24.542Z,101258.44
2022-09-23T10:21:59.839Z,101254.56
2022-09-23T10:24:30.465Z,101246.59
2022-09-23T10:27:01.577Z,101248.00
2022-09-23T10:29:38.828Z,101243.59
2022-09-23T10:32:25.832Z,101251.78
2022-09-23T10:35:16.801Z,101253.25
2022-09-23T10:37:57.783Z,101256.34
2022-09-23T10:40:49.198Z,101256.31
2022-09-23T10:43:43.563Z,101254.81
2022-09-23T10:46:37.977Z,101255.47
2022-09-23T10:49:24.540Z,101252.44
2022-09-23T10:52:16.997Z,101242.97
2022-09-23T10:55:02.101Z,101248.59
2022-09-23T10:57:50.981Z,101252.59
2022-09-23T11:00:25.672Z,101248.19
2022-09-23T11:03:17.466Z,101248.88
2022-09-23T11:05:59.040Z,101243.34
2022-09-23T11:08:50.967Z,101234.81
2022-09-23T11:11:40.454Z,101240.47
2022-09-23T11:14:16.781Z,101249.22
2022-09-23T11:17:14.615Z,101245.56
2022-09-23T11:20:23.026Z,101245.03
2022-09-23T11:23:08.061Z,101242.56
2022-09-23T11:25:40.973Z,101239.53
2022-09-23T11:28:10.211Z,101243.72
2022-09-23T11:31:05.579Z,101236.84
2022-09-23T11:33:55.644Z,101234.66
2022-09-23T11:36:32.725Z,101231.00
2022-09-23T11:39:01.394Z,101231.56
2022-09-23T11:41:36.075Z,101226.25
2022-09-23T11:44:16.005Z,101226.34
2022-09-23T11:46:46.594Z,101225.78
2022-09-23T11:49:30.461Z,101223.66
2022-09-23T11:52:14.248Z,101222.75
2022-09-23T11:54:49.538Z,101210.63
2022-09-23T11:57:49.754Z,101213.06
2022-09-23T12:00:23.013Z,101208.91
2022-09-23T12:03:15.597Z,101213.13
2022-09-23T12:05:47.558Z,101204.75
2022-09-23T12:08:39.461Z,101200.78
2022-09-23T12:11:30.565Z,101197.22
2022-09-23T12:14:19.282Z,101200.31
2022-09-23T12:16:55.166Z,101198.94
2022-09-23T12:19:55.446Z,101199.03
2022-09-23T12:22:40.836Z,101195.81
2022-09-23T12:25:26.572Z,101198.31
2022-09-23T12:27:55.945Z,101200.53
2022-09-23T12:30:27.846Z,101199.50
2022-09-23T12:33:14.749Z,101184.81
2022-09-23T12:35:45.318Z,101181.63
2022-09-23T12:38:14.728Z,101180.47
2022-09-23T12:40:44.483Z,101184.31
2022-09-23T12:43:18.865Z,101178.03
2022-09-23T12:45:45.627Z,101166.69
2022-09-23T12:48:17.999Z,101169.22
2022-09-23T12:51:02.838Z,101173.63
2022-09-23T12:53:53.405Z,101171.16
2022-09-23T12:56:29.752Z,101172.00
2022-09-23T12:59:01.706Z,101172.06
2022-09-23T13:01:35.325Z,101170.06
2022-09-23T13:04:20.593Z,101171.88
2022-09-23T13:07:05.043Z,101164.25
2022-09-23T13:09:37.482Z,101169.44
2022-09-23T13:12:08.480Z,101167.53
2022-09-23T13:14:37.809Z,101159.81
2022-09-23T13:17:04.515Z,101160.59
2022-09-23T13:19:35.345Z,101161.22
2022-09-23T13:22:09.357Z,101155.47
2022-09-23T13:24:44.361Z,101161.59
2022-09-23T13:27:33.282Z,101155.47
2022-09-23T13:30:07.775Z,101160.09
2022-09-23T13:32:45.151Z,101158.63
2022-09-23T13:35:32.608Z,101156.50
2022-09-23T13:37:59.047Z,101150.41
2022-09-23T13:40:29.004Z,101148.66
2022-09-23T13:43:05.030Z,101148.38
2022-09-23T13:45:32.357Z,101145.50
2022-09-23T13:48:07.276Z,101144.44
2022-09-23T13:50:38.391Z,101146.38
2022-09-23T13:53:10.436Z,101138.41
2022-09-23T13:55:39.106Z,101141.38
2022-09-23T13:58:20.454Z,101139.13
2022-09-23T14:00:47.666Z,101134.06
2022-09-23T14:03:36.543Z,101136.06
2022-09-23T14:06:12.826Z,101127.03
2022-09-23T14:08:43.722Z,101134.72
2022-09-23T14:11:16.153Z,101130.41
2022-09-23T14:13:43.897Z,101126.25
2022-09-23T14:16:14.872Z,101120.94
2022-09-23T14:18:45.592Z,101122.34
2022-09-23T14:21:49.512Z,101123.59
2022-09-23T14:24:33.626Z,101114.78
2022-09-23T14:27:15.659Z,101115.63
2022-09-23T14:29:47.754Z,101115.72
2022-09-23T14:32:18.753Z,101113.69
2022-09-23T14:35:04.981Z,101111.97
2022-09-23T14:38:00.763Z,101106.31
2022-09-23T14:40:30.228Z,101106.53
2022-09-23T14:43:11.102Z,101087.41
2022-09-23T14:45:39.972Z,101106.47
2022-09-23T14:48:14.549Z,101101.81
2022-09-23T14:50:49.500Z,101108.00
2022-09-23T14:53:24.687Z,101104.66
2022-09-23T14:56:07.286Z,101099.97
2022-09-23T14:58:54.850Z,101106.56
2022-09-23T15:01:41.621Z,101104.78
2022-09-23T15:04:14.088Z,101090.81
2022-09-23T15:06:44.836Z,101101.63
2022-09-23T15:09:20.092Z,101100.19
2022-09-23T15:11:47.120Z,101091.59
2022-09-23T15:14:36.593Z,101094.53
2022-09-23T15:17:02.444Z,101090.25
2022-09-23T15:19:31.501Z,101082.50
2022-09-23T15:21:57.973Z,101089.09
2022-09-23T15:24:44.984Z,101090.94
2022-09-23T15:27:22.523Z,101085.81
2022-09-23T15:29:50.091Z,101087.69
2022-09-23T15:32:16.665Z,101080.91
2022-09-23T15:34:43.045Z,101085.19
2022-09-23T15:37:12.559Z,101086.53
2022-09-23T15:39:38.925Z,101082.06
2022-09-23T15:42:07.125Z,101081.22
2022-09-23T15:44:33.620Z,101080.81
2022-09-23T15:47:01.045Z,101081.16
2022-09-23T15:49:39.100Z,101078.88
2022-09-23T15:52:07.114Z,101079.09
2022-09-23T15:54:33.760Z,101081.34
2022-09-23T15:57:01.061Z,101075.66
2022-09-23T15:59:28.666Z,101078.63
2022-09-23T16:01:56.754Z,101077.75
2022-09-23T16:04:23.659Z,101078.53
2022-09-23T16:06:50.026Z,101074.06
2022-09-23T16:09:16.465Z,101073.22
2022-09-23T16:11:46.109Z,101079.41
2022-09-23T16:14:19.226Z,101076.22
2022-09-23T16:16:47.731Z,101076.91
2022-09-23T16:19:16.073Z,101082.75
2022-09-23T16:21:43.151Z,101078.66
2022-09-23T16:24:17.806Z,101082.66
2022-09-23T16:26:46.545Z,101087.41
2022-09-23T16:29:13.555Z,101082.25
2022-09-23T16:31:40.056Z,101085.56
2022-09-23T16:34:07.006Z,101082.88
2022-09-23T16:36:37.488Z,101085.66
2022-09-23T16:39:06.750Z,101082.41
2022-09-23T16:41:33.928Z,101082.41
2022-09-23T16:44:02.162Z,101086.09
2022-09-23T16:46:29.380Z,101088.16
2022-09-23T16:48:57.479Z,101090.63
2022-09-23T16:51:30.648Z,101080.75
2022-09-23T16:53:58.855Z,101083.09
2022-09-23T16:56:28.893Z,101088.75
2022-09-23T16:58:56.385Z,101086.66
2022-09-23T17:01:43.700Z,101087.06
2022-09-23T17:04:10.577Z,101083.50
2022-09-23T17:06:44.818Z,101080.19
2022-09-23T17:09:11.862Z,101087.59
2022-09-23T17:11:38.241Z,101084.00
2022-09-23T17:14:05.593Z,101084.59
2022-09-23T17:16:33.656Z,101086.09
2022-09-23T17:19:06.427Z,101083.84
2022-09-23T17:21:32.883Z,101084.94
2022-09-23T17:23:59.285Z,101081.31
2022-09-23T17:26:27.092Z,101077.72
2022-09-23T17:28:55.756Z,101081.69
2022-09-23T17:31:23.670Z,101077.00
2022-09-23T17:33:51.630Z,101075.22
2022-09-23T17:36:18.900Z,101074.09
2022-09-23T17:38:46.875Z,101075.31
2022-09-23T17:41:14.481Z,101082.53
2022-09-23T17:43:41.275Z,101079.34
2022-09-23T17:46:11.217Z,101084.78
2022-09-23T17:48:39.618Z,101082.53
2022-09-23T17:51:11.783Z,101084.59
2022-09-23T17:53:39.983Z,101081.69
2022-09-23T17:56:27.104Z,101084.28
2022-09-23T17:58:53.977Z,101079.63
2022-09-23T18:01:25.546Z,101079.88
2022-09-23T18:04:00.351Z,101074.91
2022-09-23T18:06:31.315Z,101076.22
2022-09-23T18:09:01.404Z,101069.56
2022-09-23T18:11:29.633Z,101070.19
2022-09-23T18:14:17.753Z,101074.06
2022-09-23T18:16:45.884Z,101077.78
2022-09-23T18:19:15.385Z,101072.63
2022-09-23T18:21:44.807Z,101077.13
2022-09-23T18:26:59.919Z,101072.25
2022-09-23T18:29:26.695Z,101064.25
2022-09-23T18:31:53.188Z,101069.25
2022-09-23T18:34:20.195Z,101070.25
2022-09-23T18:36:46.605Z,101070.06
2022-09-23T18:39:13.392Z,101073.94
2022-09-23T18:41:40.360Z,101071.03
2022-09-23T18:44:06.841Z,101072.13
2022-09-23T18:46:33.322Z,101084.22
2022-09-23T18:49:18.731Z,101083.00
2022-09-23T18:51:56.103Z,101077.94
2022-09-23T18:54:25.535Z,101073.13
2022-09-23T18:56:52.711Z,101080.56
2022-09-23T18:59:21.111Z,101082.41
2022-09-23T19:01:49.785Z,101087.44
2022-09-23T19:04:18.919Z,101077.19
2022-09-23T19:06:45.575Z,101086.94
2022-09-23T19:09:12.426Z,101082.69
2022-09-23T19:11:39.244Z,101086.16
2022-09-23T19:14:10.812Z,101076.78
2022-09-23T19:16:38.423Z,101078.75
2022-09-23T19:19:05.397Z,101078.19
2022-09-23T19:21:32.723Z,101086.25
2022-09-23T19:24:03.420Z,101079.53
2022-09-23T19:26:37.542Z,101078.97
2022-09-23T19:29:05.872Z,101075.38
2022-09-23T19:31:34.926Z,101078.31
2022-09-23T19:34:10.557Z,101074.03
2022-09-23T19:36:39.457Z,101075.91
2022-09-23T19:39:08.696Z,101081.81
2022-09-23T19:41:35.435Z,101083.19
2022-09-23T19:44:03.302Z,101082.47
2022-09-23T19:46:33.880Z,101081.53
2022-09-23T19:49:00.616Z,101076.94
2022-09-23T19:51:28.204Z,101081.56
2022-09-23T19:53:54.643Z,101079.03
2022-09-23T19:56:21.001Z,101077.47
2022-09-23T19:58:54.154Z,101080.03
2022-09-23T20:01:22.014Z,101078.19
2022-09-23T20:03:49.053Z,101083.44
2022-09-23T20:06:16.766Z,101076.13
2022-09-23T20:08:44.289Z,101074.09
2022-09-23T20:11:19.714Z,101075.16
2022-09-23T20:13:47.335Z,101067.69
2022-09-23T20:16:16.411Z,101072.81
2022-09-23T20:18:43.740Z,101068.97
2022-09-23T20:21:13.400Z,101068.09
2022-09-23T20:23:40.206Z,101058.38
2022-09-23T20:26:26.178Z,101058.38
2022-09-23T20:28:52.823Z,101061.03
2022-09-23T20:31:23.782Z,101053.25
2022-09-23T20:33:52.175Z,101055.28
2022-09-23T20:36:18.548Z,101051.38
2022-09-23T20:38:44.934Z,101046.50
2022-09-23T20:41:11.353Z,101045.34
2022-09-23T20:43:37.721Z,101041.63
2022-09-23T20:46:05.294Z,101041.47
2022-09-23T20:48:31.766Z,101039.91
2022-09-23T20:51:05.483Z,101041.63
2022-09-23T20:53:32.571Z,101036.53
2022-09-23T20:55:59.616Z,101025.47
2022-09-23T20:58:29.038Z,101030.72
2022-09-23T21:01:05.958Z,101030.91
2022-09-23T21:03:32.754Z,101030.41
2022-09-23T21:06:01.413Z,101026.13
2022-09-23T21:08:27.894Z,101029.03
2022-09-23T21:10:59.024Z,101029.09
2022-09-23T21:13:25.441Z,101024.25
2022-09-23T21:15:52.026Z,101027.03
2022-09-23T21:18:22.381Z,101023.66
2022-09-23T21:20:59.943Z,101030.31
2022-09-23T21:23:33.359Z,101030.00
2022-09-23T21:26:30.026Z,101024.88
2022-09-23T21:29:00.799Z,101020.94
2022-09-23T21:31:33.781Z,101030.31
2022-09-23T21:34:05.442Z,101020.09
2022-09-23T21:36:34.521Z,101027.22
2022-09-23T21:39:01.720Z,101025.34
2022-09-23T21:41:28.256Z,101015.69
2022-09-23T21:43:57.824Z,101016.88
2022-09-23T21:46:25.335Z,101013.78
2022-09-23T21:48:54.878Z,101016.66
2022-09-23T21:51:25.386Z,101014.06
2022-09-23T21:53:54.403Z,101008.50
2022-09-23T21:56:32.778Z,101020.72
2022-09-23T21:58:59.897Z,101016.59
2022-09-23T22:01:33.133Z,101011.50
2022-09-23T22:04:05.186Z,101012.63
2022-09-23T22:06:31.874Z,101019.25
2022-09-23T22:09:00.837Z,101013.63
2022-09-23T22:11:50.965Z,101011.97
2022-09-23T22:14:19.626Z,101009.72
2022-09-23T22:16:46.314Z,101012.06
2022-09-23T22:19:15.585Z,101015.63
2022-09-23T22:21:45.193Z,101005.00
2022-09-23T22:24:12.496Z,101012.41
2022-09-23T22:26:41.567Z,101012.91
2022-09-23T22:29:29.721Z,101011.91
2022-09-23T22:32:15.067Z,101008.34
2022-09-23T22:34:50.060Z,101009.03
2022-09-23T22:37:20.383Z,101014.88
2022-09-23T22:39:47.003Z,101010.31
2022-09-23T22:42:14.290Z,101006.53
2022-09-23T22:44:40.860Z,101009.72
2022-09-23T22:47:08.124Z,101010.81
2022-09-23T22:49:34.909Z,101013.31
2022-09-23T22:52:04.044Z,101001.59
2022-09-23T22:54:33.989Z,101004.47
2022-09-23T22:57:03.769Z,101002.31
2022-09-23T22:59:30.298Z,100997.88
2022-09-23T23:01:57.166Z,101004.16
2022-09-23T23:04:23.748Z,101002.16
2022-09-23T23:06:50.153Z,100994.50
2022-09-23T23:09:18.181Z,101003.31
2022-09-23T23:11:45.662Z,100997.59
2022-09-23T23:14:13.427Z,100997.09
2022-09-23T23:16:40.198Z,100994.75
2022-09-23T23:19:11.968Z,100996.97
2022-09-23T23:21:38.867Z,100992.69
2022-09-23T23:24:05.429Z,100988.84
2022-09-23T23:26:33.892Z,100996.31
2022-09-23T23:29:01.538Z,100989.00
2022-09-23T23:31:32.042Z,100982.84
2022-09-23T23:33:58.778Z,100982.13
2022-09-23T23:36:25.257Z,100989.06
2022-09-23T23:38:51.745Z,100982.28
2022-09-23T23:41:21.900Z,100980.44
2022-09-23T23:43:54.871Z,100983.50
2022-09-23T23:46:22.000Z,100978.72
2022-09-23T23:48:49.129Z,100979.22
2022-09-23T23:51:16.336Z,100977.22
2022-09-23T23:53:43.439Z,100981.94
2022-09-23T23:56:13.045Z,100982.13
2022-09-23T23:58:39.968Z,100981.28
